sensor_id;sensor_type;location;lat;lon;timestamp;temperature;humidity
68867;SHT30;56451;44.804;20.476;2023-02-11T00:00:14;3.46;48.97
68867;SHT30;56451;44.804;20.476;2023-02-11T00:02:40;3.44;49.03
68867;SHT30;56451;44.804;20.476;2023-02-11T00:05:06;3.39;49.17
68867;SHT30;56451;44.804;20.476;2023-02-11T00:07:33;3.38;49.18
68867;SHT30;56451;44.804;20.476;2023-02-11T00:09:59;3.36;49.29
68867;SHT30;56451;44.804;20.476;2023-02-11T00:12:27;3.32;49.41
68867;SHT30;56451;44.804;20.476;2023-02-11T00:14:54;3.31;49.50
68867;SHT30;56451;44.804;20.476;2023-02-11T00:17:20;3.28;49.61
68867;SHT30;56451;44.804;20.476;2023-02-11T00:19:49;3.27;49.62
68867;SHT30;56451;44.804;20.476;2023-02-11T00:22:16;3.25;49.71
68867;SHT30;56451;44.804;20.476;2023-02-11T00:24:42;3.23;49.75
68867;SHT30;56451;44.804;20.476;2023-02-11T00:27:08;3.23;49.91
68867;SHT30;56451;44.804;20.476;2023-02-11T00:29:33;3.17;49.99
68867;SHT30;56451;44.804;20.476;2023-02-11T00:31:59;3.21;50.04
68867;SHT30;56451;44.804;20.476;2023-02-11T00:34:34;3.15;50.14
68867;SHT30;56451;44.804;20.476;2023-02-11T00:37:01;3.15;50.22
68867;SHT30;56451;44.804;20.476;2023-02-11T00:39:28;3.14;50.25
68867;SHT30;56451;44.804;20.476;2023-02-11T00:41:54;3.10;50.41
68867;SHT30;56451;44.804;20.476;2023-02-11T00:44:20;3.08;50.36
68867;SHT30;56451;44.804;20.476;2023-02-11T00:46:46;3.10;50.23
68867;SHT30;56451;44.804;20.476;2023-02-11T00:49:12;3.13;50.35
68867;SHT30;56451;44.804;20.476;2023-02-11T00:51:40;3.13;50.32
68867;SHT30;56451;44.804;20.476;2023-02-11T00:54:06;3.10;50.42
68867;SHT30;56451;44.804;20.476;2023-02-11T00:56:33;3.13;50.41
68867;SHT30;56451;44.804;20.476;2023-02-11T00:58:59;3.13;50.46
68867;SHT30;56451;44.804;20.476;2023-02-11T01:01:24;3.10;50.48
68867;SHT30;56451;44.804;20.476;2023-02-11T01:03:50;3.07;50.51
68867;SHT30;56451;44.804;20.476;2023-02-11T01:06:17;3.10;50.60
68867;SHT30;56451;44.804;20.476;2023-02-11T01:08:43;3.05;50.71
68867;SHT30;56451;44.804;20.476;2023-02-11T01:11:15;3.05;50.81
68867;SHT30;56451;44.804;20.476;2023-02-11T01:13:44;3.11;50.61
68867;SHT30;56451;44.804;20.476;2023-02-11T01:16:11;3.11;50.54
68867;SHT30;56451;44.804;20.476;2023-02-11T01:18:38;3.10;50.62
68867;SHT30;56451;44.804;20.476;2023-02-11T01:21:04;3.10;50.63
68867;SHT30;56451;44.804;20.476;2023-02-11T01:23:30;3.11;50.64
68867;SHT30;56451;44.804;20.476;2023-02-11T01:25:56;3.05;50.69
68867;SHT30;56451;44.804;20.476;2023-02-11T01:28:24;3.03;50.68
68867;SHT30;56451;44.804;20.476;2023-02-11T01:30:51;3.04;50.50
68867;SHT30;56451;44.804;20.476;2023-02-11T01:33:17;3.00;50.50
68867;SHT30;56451;44.804;20.476;2023-02-11T01:35:44;3.03;50.63
68867;SHT30;56451;44.804;20.476;2023-02-11T01:38:19;3.03;50.59
68867;SHT30;56451;44.804;20.476;2023-02-11T01:40:49;3.03;50.53
68867;SHT30;56451;44.804;20.476;2023-02-11T01:43:16;3.01;50.63
68867;SHT30;56451;44.804;20.476;2023-02-11T01:48:25;2.99;50.61
68867;SHT30;56451;44.804;20.476;2023-02-11T01:50:57;3.00;50.67
68867;SHT30;56451;44.804;20.476;2023-02-11T01:53:24;2.94;50.66
68867;SHT30;56451;44.804;20.476;2023-02-11T01:56:10;2.97;50.57
68867;SHT30;56451;44.804;20.476;2023-02-11T01:59:02;2.94;50.59
68867;SHT30;56451;44.804;20.476;2023-02-11T02:01:31;2.92;50.63
68867;SHT30;56451;44.804;20.476;2023-02-11T02:04:00;2.90;50.67
68867;SHT30;56451;44.804;20.476;2023-02-11T02:06:36;2.90;50.70
68867;SHT30;56451;44.804;20.476;2023-02-11T02:09:08;2.90;50.73
68867;SHT30;56451;44.804;20.476;2023-02-11T02:11:38;2.90;50.71
68867;SHT30;56451;44.804;20.476;2023-02-11T02:14:04;2.89;50.59
68867;SHT30;56451;44.804;20.476;2023-02-11T02:16:35;2.89;50.63
68867;SHT30;56451;44.804;20.476;2023-02-11T02:19:36;2.84;50.71
68867;SHT30;56451;44.804;20.476;2023-02-11T02:30:38;2.79;51.10
68867;SHT30;56451;44.804;20.476;2023-02-11T02:38:32;2.83;51.15
68867;SHT30;56451;44.804;20.476;2023-02-11T02:41:13;2.83;51.00
68867;SHT30;56451;44.804;20.476;2023-02-11T02:43:46;2.79;51.10
68867;SHT30;56451;44.804;20.476;2023-02-11T02:48:44;2.79;50.95
68867;SHT30;56451;44.804;20.476;2023-02-11T03:05:55;2.65;51.39
68867;SHT30;56451;44.804;20.476;2023-02-11T03:08:52;2.60;51.46
68867;SHT30;56451;44.804;20.476;2023-02-11T03:11:17;2.57;51.60
68867;SHT30;56451;44.804;20.476;2023-02-11T03:13:45;2.57;51.69
68867;SHT30;56451;44.804;20.476;2023-02-11T03:16:14;2.53;51.77
68867;SHT30;56451;44.804;20.476;2023-02-11T03:18:47;2.56;51.82
68867;SHT30;56451;44.804;20.476;2023-02-11T03:21:15;2.55;51.82
68867;SHT30;56451;44.804;20.476;2023-02-11T03:23:55;2.55;51.79
68867;SHT30;56451;44.804;20.476;2023-02-11T03:26:29;2.52;51.87
68867;SHT30;56451;44.804;20.476;2023-02-11T03:37:50;2.50;51.95
68867;SHT30;56451;44.804;20.476;2023-02-11T03:40:26;2.48;51.97
68867;SHT30;56451;44.804;20.476;2023-02-11T03:42:58;2.45;52.09
68867;SHT30;56451;44.804;20.476;2023-02-11T03:45:26;2.42;52.07
68867;SHT30;56451;44.804;20.476;2023-02-11T03:47:59;2.44;52.16
68867;SHT30;56451;44.804;20.476;2023-02-11T03:50:29;2.41;52.15
68867;SHT30;56451;44.804;20.476;2023-02-11T03:52:56;2.39;52.23
68867;SHT30;56451;44.804;20.476;2023-02-11T03:55:25;2.41;52.26
68867;SHT30;56451;44.804;20.476;2023-02-11T03:57:52;2.39;52.21
68867;SHT30;56451;44.804;20.476;2023-02-11T04:00:18;2.45;52.22
68867;SHT30;56451;44.804;20.476;2023-02-11T04:02:44;2.44;52.04
68867;SHT30;56451;44.804;20.476;2023-02-11T04:05:13;2.45;52.03
68867;SHT30;56451;44.804;20.476;2023-02-11T04:07:40;2.48;51.94
68867;SHT30;56451;44.804;20.476;2023-02-11T04:10:06;2.48;51.90
68867;SHT30;56451;44.804;20.476;2023-02-11T04:12:32;2.48;51.89
68867;SHT30;56451;44.804;20.476;2023-02-11T04:14:58;2.42;51.82
68867;SHT30;56451;44.804;20.476;2023-02-11T04:17:24;2.41;51.98
68867;SHT30;56451;44.804;20.476;2023-02-11T04:19:50;2.39;51.93
68867;SHT30;56451;44.804;20.476;2023-02-11T04:22:15;2.38;51.99
68867;SHT30;56451;44.804;20.476;2023-02-11T04:24:41;2.35;52.16
68867;SHT30;56451;44.804;20.476;2023-02-11T04:27:08;2.35;52.08
68867;SHT30;56451;44.804;20.476;2023-02-11T04:29:34;2.36;52.11
68867;SHT30;56451;44.804;20.476;2023-02-11T04:32:00;2.31;52.14
68867;SHT30;56451;44.804;20.476;2023-02-11T04:34:28;2.35;52.08
68867;SHT30;56451;44.804;20.476;2023-02-11T04:36:54;2.35;52.09
68867;SHT30;56451;44.804;20.476;2023-02-11T04:39:20;2.32;52.10
68867;SHT30;56451;44.804;20.476;2023-02-11T04:41:46;2.29;52.15
68867;SHT30;56451;44.804;20.476;2023-02-11T04:44:12;2.26;52.29
68867;SHT30;56451;44.804;20.476;2023-02-11T04:46:38;2.28;52.25
68867;SHT30;56451;44.804;20.476;2023-02-11T04:49:04;2.29;52.20
68867;SHT30;56451;44.804;20.476;2023-02-11T04:51:30;2.28;52.14
68867;SHT30;56451;44.804;20.476;2023-02-11T04:53:56;2.31;52.16
68867;SHT30;56451;44.804;20.476;2023-02-11T04:56:22;2.28;52.27
68867;SHT30;56451;44.804;20.476;2023-02-11T04:58:48;2.26;52.31
68867;SHT30;56451;44.804;20.476;2023-02-11T05:01:14;2.21;52.38
68867;SHT30;56451;44.804;20.476;2023-02-11T05:03:40;2.24;52.48
68867;SHT30;56451;44.804;20.476;2023-02-11T05:06:06;2.25;52.48
68867;SHT30;56451;44.804;20.476;2023-02-11T05:08:32;2.20;52.50
68867;SHT30;56451;44.804;20.476;2023-02-11T05:10:59;2.17;52.47
68867;SHT30;56451;44.804;20.476;2023-02-11T05:13:28;2.17;52.49
68867;SHT30;56451;44.804;20.476;2023-02-11T05:15:54;2.14;52.64
68867;SHT30;56451;44.804;20.476;2023-02-11T05:18:20;2.15;52.64
68867;SHT30;56451;44.804;20.476;2023-02-11T05:20:46;2.17;52.65
68867;SHT30;56451;44.804;20.476;2023-02-11T05:23:12;2.11;52.76
68867;SHT30;56451;44.804;20.476;2023-02-11T05:25:38;2.11;52.82
68867;SHT30;56451;44.804;20.476;2023-02-11T05:28:05;2.13;52.84
68867;SHT30;56451;44.804;20.476;2023-02-11T05:30:31;2.11;52.68
68867;SHT30;56451;44.804;20.476;2023-02-11T05:32:57;2.10;52.71
68867;SHT30;56451;44.804;20.476;2023-02-11T05:35:23;2.04;52.82
68867;SHT30;56451;44.804;20.476;2023-02-11T05:37:49;2.00;53.06
68867;SHT30;56451;44.804;20.476;2023-02-11T05:40:15;1.98;53.10
68867;SHT30;56451;44.804;20.476;2023-02-11T05:42:41;2.00;53.03
68867;SHT30;56451;44.804;20.476;2023-02-11T05:45:07;1.98;53.12
68867;SHT30;56451;44.804;20.476;2023-02-11T05:47:33;2.00;53.11
68867;SHT30;56451;44.804;20.476;2023-02-11T05:49:59;2.01;53.03
68867;SHT30;56451;44.804;20.476;2023-02-11T05:52:25;2.01;53.09
68867;SHT30;56451;44.804;20.476;2023-02-11T05:54:51;2.03;53.02
68867;SHT30;56451;44.804;20.476;2023-02-11T05:57:17;2.03;53.04
68867;SHT30;56451;44.804;20.476;2023-02-11T05:59:43;2.04;53.08
68867;SHT30;56451;44.804;20.476;2023-02-11T06:02:09;2.05;53.02
68867;SHT30;56451;44.804;20.476;2023-02-11T06:04:35;2.08;52.99
68867;SHT30;56451;44.804;20.476;2023-02-11T06:07:02;2.10;53.00
68867;SHT30;56451;44.804;20.476;2023-02-11T06:09:29;2.11;53.05
68867;SHT30;56451;44.804;20.476;2023-02-11T06:11:55;2.08;53.12
68867;SHT30;56451;44.804;20.476;2023-02-11T06:14:21;2.15;53.03
68867;SHT30;56451;44.804;20.476;2023-02-11T06:16:47;2.15;53.00
68867;SHT30;56451;44.804;20.476;2023-02-11T06:19:13;2.22;52.83
68867;SHT30;56451;44.804;20.476;2023-02-11T06:21:39;2.22;52.76
68867;SHT30;56451;44.804;20.476;2023-02-11T06:24:05;2.25;52.73
68867;SHT30;56451;44.804;20.476;2023-02-11T06:26:31;2.28;52.67
68867;SHT30;56451;44.804;20.476;2023-02-11T06:29:00;2.31;52.61
68867;SHT30;56451;44.804;20.476;2023-02-11T06:31:27;2.31;52.49
68867;SHT30;56451;44.804;20.476;2023-02-11T06:33:52;2.34;52.49
68867;SHT30;56451;44.804;20.476;2023-02-11T06:36:21;2.31;52.55
68867;SHT30;56451;44.804;20.476;2023-02-11T06:38:47;2.35;52.51
68867;SHT30;56451;44.804;20.476;2023-02-11T06:41:15;2.39;52.61
68867;SHT30;56451;44.804;20.476;2023-02-11T06:43:42;2.42;52.36
68867;SHT30;56451;44.804;20.476;2023-02-11T06:46:08;2.45;52.36
68867;SHT30;56451;44.804;20.476;2023-02-11T06:48:34;2.48;52.32
68867;SHT30;56451;44.804;20.476;2023-02-11T06:51:02;2.53;52.16
68867;SHT30;56451;44.804;20.476;2023-02-11T06:53:30;2.55;52.20
68867;SHT30;56451;44.804;20.476;2023-02-11T06:56:02;2.59;51.99
68867;SHT30;56451;44.804;20.476;2023-02-11T06:58:27;2.59;52.01
68867;SHT30;56451;44.804;20.476;2023-02-11T07:00:53;2.69;51.86
68867;SHT30;56451;44.804;20.476;2023-02-11T07:03:19;2.67;52.05
68867;SHT30;56451;44.804;20.476;2023-02-11T07:05:45;2.71;51.81
68867;SHT30;56451;44.804;20.476;2023-02-11T07:08:11;2.73;51.77
68867;SHT30;56451;44.804;20.476;2023-02-11T07:10:37;2.77;51.63
68867;SHT30;56451;44.804;20.476;2023-02-11T07:13:03;2.80;51.24
68867;SHT30;56451;44.804;20.476;2023-02-11T07:15:29;2.82;51.18
68867;SHT30;56451;44.804;20.476;2023-02-11T07:17:55;2.86;51.14
68867;SHT30;56451;44.804;20.476;2023-02-11T07:20:21;2.84;51.03
68867;SHT30;56451;44.804;20.476;2023-02-11T07:22:46;2.89;51.07
68867;SHT30;56451;44.804;20.476;2023-02-11T07:25:12;2.87;50.99
68867;SHT30;56451;44.804;20.476;2023-02-11T07:27:38;2.90;51.07
68867;SHT30;56451;44.804;20.476;2023-02-11T07:30:04;2.93;51.24
68867;SHT30;56451;44.804;20.476;2023-02-11T07:32:30;2.97;51.07
68867;SHT30;56451;44.804;20.476;2023-02-11T07:34:56;3.01;50.79
68867;SHT30;56451;44.804;20.476;2023-02-11T07:37:22;2.99;50.90
68867;SHT30;56451;44.804;20.476;2023-02-11T07:39:48;3.04;50.68
68867;SHT30;56451;44.804;20.476;2023-02-11T07:42:14;3.07;50.74
68867;SHT30;56451;44.804;20.476;2023-02-11T07:44:40;3.15;50.68
68867;SHT30;56451;44.804;20.476;2023-02-11T07:47:06;3.20;50.41
68867;SHT30;56451;44.804;20.476;2023-02-11T07:49:32;3.21;50.29
68867;SHT30;56451;44.804;20.476;2023-02-11T07:51:57;3.21;50.25
68867;SHT30;56451;44.804;20.476;2023-02-11T07:54:23;3.27;50.26
68867;SHT30;56451;44.804;20.476;2023-02-11T07:56:49;3.30;50.15
68867;SHT30;56451;44.804;20.476;2023-02-11T07:59:16;3.35;49.87
68867;SHT30;56451;44.804;20.476;2023-02-11T08:01:42;3.38;49.64
68867;SHT30;56451;44.804;20.476;2023-02-11T08:04:08;3.32;49.71
68867;SHT30;56451;44.804;20.476;2023-02-11T08:06:34;3.32;49.61
68867;SHT30;56451;44.804;20.476;2023-02-11T08:09:06;3.34;49.63
68867;SHT30;56451;44.804;20.476;2023-02-11T08:11:32;3.41;49.60
68867;SHT30;56451;44.804;20.476;2023-02-11T08:13:58;3.45;49.50
68867;SHT30;56451;44.804;20.476;2023-02-11T08:16:27;3.48;49.49
68867;SHT30;56451;44.804;20.476;2023-02-11T08:18:59;3.54;49.31
68867;SHT30;56451;44.804;20.476;2023-02-11T08:21:26;3.55;49.09
68867;SHT30;56451;44.804;20.476;2023-02-11T08:23:54;3.52;49.03
68867;SHT30;56451;44.804;20.476;2023-02-11T08:26:23;3.58;49.15
68867;SHT30;56451;44.804;20.476;2023-02-11T08:28:50;3.59;49.00
68867;SHT30;56451;44.804;20.476;2023-02-11T08:31:23;3.62;49.13
68867;SHT30;56451;44.804;20.476;2023-02-11T08:33:49;3.62;48.85
68867;SHT30;56451;44.804;20.476;2023-02-11T08:36:18;3.63;49.00
68867;SHT30;56451;44.804;20.476;2023-02-11T08:38:45;3.65;49.00
68867;SHT30;56451;44.804;20.476;2023-02-11T08:41:12;3.71;48.92
68867;SHT30;56451;44.804;20.476;2023-02-11T08:43:42;3.76;49.03
68867;SHT30;56451;44.804;20.476;2023-02-11T08:46:14;3.79;49.17
68867;SHT30;56451;44.804;20.476;2023-02-11T08:48:41;3.87;48.61
68867;SHT30;56451;44.804;20.476;2023-02-11T08:51:11;3.89;48.70
68867;SHT30;56451;44.804;20.476;2023-02-11T08:53:37;3.89;48.84
68867;SHT30;56451;44.804;20.476;2023-02-11T08:56:04;3.93;48.97
68867;SHT30;56451;44.804;20.476;2023-02-11T08:58:31;3.90;48.88
68867;SHT30;56451;44.804;20.476;2023-02-11T09:01:13;3.90;49.01
68867;SHT30;56451;44.804;20.476;2023-02-11T09:03:39;3.90;49.18
68867;SHT30;56451;44.804;20.476;2023-02-11T09:06:07;3.93;48.97
68867;SHT30;56451;44.804;20.476;2023-02-11T09:08:37;3.97;48.65
68867;SHT30;56451;44.804;20.476;2023-02-11T09:11:04;3.97;48.93
68867;SHT30;56451;44.804;20.476;2023-02-11T09:13:31;4.00;49.06
68867;SHT30;56451;44.804;20.476;2023-02-11T09:15:58;3.99;49.37
68867;SHT30;56451;44.804;20.476;2023-02-11T09:18:25;4.02;49.63
68867;SHT30;56451;44.804;20.476;2023-02-11T09:20:51;4.04;49.71
68867;SHT30;56451;44.804;20.476;2023-02-11T09:23:17;4.07;49.31
68867;SHT30;56451;44.804;20.476;2023-02-11T09:25:42;4.04;49.42
68867;SHT30;56451;44.804;20.476;2023-02-11T09:28:09;4.07;49.40
68867;SHT30;56451;44.804;20.476;2023-02-11T09:30:37;4.13;49.79
68867;SHT30;56451;44.804;20.476;2023-02-11T09:33:04;4.23;49.60
68867;SHT30;56451;44.804;20.476;2023-02-11T09:35:31;4.25;49.42
68867;SHT30;56451;44.804;20.476;2023-02-11T09:37:57;4.29;48.69
68867;SHT30;56451;44.804;20.476;2023-02-11T09:40:23;4.29;49.81
68867;SHT30;56451;44.804;20.476;2023-02-11T09:43:10;4.25;50.14
68867;SHT30;56451;44.804;20.476;2023-02-11T09:45:38;4.25;50.38
68867;SHT30;56451;44.804;20.476;2023-02-11T09:48:12;4.33;49.93
68867;SHT30;56451;44.804;20.476;2023-02-11T09:50:42;4.40;49.81
68867;SHT30;56451;44.804;20.476;2023-02-11T09:53:30;4.51;49.39
68867;SHT30;56451;44.804;20.476;2023-02-11T09:56:00;4.59;49.48
68867;SHT30;56451;44.804;20.476;2023-02-11T09:58:34;4.71;48.35
68867;SHT30;56451;44.804;20.476;2023-02-11T10:01:52;4.83;47.99
68867;SHT30;56451;44.804;20.476;2023-02-11T10:06:44;4.95;47.67
68867;SHT30;56451;44.804;20.476;2023-02-11T10:23:00;5.17;47.60
68867;SHT30;56451;44.804;20.476;2023-02-11T10:25:37;5.20;47.64
68867;SHT30;56451;44.804;20.476;2023-02-11T10:28:14;5.29;47.51
68867;SHT30;56451;44.804;20.476;2023-02-11T10:33:27;5.27;47.07
68867;SHT30;56451;44.804;20.476;2023-02-11T10:35:54;5.22;47.20
68867;SHT30;56451;44.804;20.476;2023-02-11T10:38:19;5.27;47.18
68867;SHT30;56451;44.804;20.476;2023-02-11T10:40:45;5.31;46.96
68867;SHT30;56451;44.804;20.476;2023-02-11T10:43:15;5.34;46.78
68867;SHT30;56451;44.804;20.476;2023-02-11T10:45:43;5.33;46.92
68867;SHT30;56451;44.804;20.476;2023-02-11T10:48:37;5.38;46.71
68867;SHT30;56451;44.804;20.476;2023-02-11T10:51:27;5.41;46.69
68867;SHT30;56451;44.804;20.476;2023-02-11T10:54:16;5.46;46.29
68867;SHT30;56451;44.804;20.476;2023-02-11T10:56:44;5.51;46.06
68867;SHT30;56451;44.804;20.476;2023-02-11T11:04:39;5.59;45.06
68867;SHT30;56451;44.804;20.476;2023-02-11T11:09:55;5.59;44.24
68867;SHT30;56451;44.804;20.476;2023-02-11T11:12:26;5.55;45.04
68867;SHT30;56451;44.804;20.476;2023-02-11T11:15:34;5.61;44.83
68867;SHT30;56451;44.804;20.476;2023-02-11T11:18:17;5.67;43.62
68867;SHT30;56451;44.804;20.476;2023-02-11T11:20:58;5.71;43.97
68867;SHT30;56451;44.804;20.476;2023-02-11T11:23:26;5.78;43.90
68867;SHT30;56451;44.804;20.476;2023-02-11T11:26:10;5.86;43.53
68867;SHT30;56451;44.804;20.476;2023-02-11T11:28:40;5.86;43.18
68867;SHT30;56451;44.804;20.476;2023-02-11T11:31:15;5.85;43.21
68867;SHT30;56451;44.804;20.476;2023-02-11T11:33:44;5.75;43.40
68867;SHT30;56451;44.804;20.476;2023-02-11T11:36:13;5.82;42.94
68867;SHT30;56451;44.804;20.476;2023-02-11T11:38:55;5.86;43.36
68867;SHT30;56451;44.804;20.476;2023-02-11T11:55:34;6.13;41.52
68867;SHT30;56451;44.804;20.476;2023-02-11T11:58:01;6.17;41.15
68867;SHT30;56451;44.804;20.476;2023-02-11T12:00:35;6.20;40.82
68867;SHT30;56451;44.804;20.476;2023-02-11T12:03:14;6.25;41.00
68867;SHT30;56451;44.804;20.476;2023-02-11T12:05:51;6.34;40.92
68867;SHT30;56451;44.804;20.476;2023-02-11T12:08:41;6.34;41.45
68867;SHT30;56451;44.804;20.476;2023-02-11T12:17:04;6.46;41.81
68867;SHT30;56451;44.804;20.476;2023-02-11T12:42:12;6.75;42.02
68867;SHT30;56451;44.804;20.476;2023-02-11T12:45:06;6.81;41.97
68867;SHT30;56451;44.804;20.476;2023-02-11T12:53:37;6.99;41.80
68867;SHT30;56451;44.804;20.476;2023-02-11T12:58:51;6.92;41.45
68867;SHT30;56451;44.804;20.476;2023-02-11T13:01:28;6.94;41.46
68867;SHT30;56451;44.804;20.476;2023-02-11T13:06:58;6.96;41.45
68867;SHT30;56451;44.804;20.476;2023-02-11T13:09:33;7.02;41.38
68867;SHT30;56451;44.804;20.476;2023-02-11T13:12:02;7.12;41.25
68867;SHT30;56451;44.804;20.476;2023-02-11T13:14:53;7.22;41.30
68867;SHT30;56451;44.804;20.476;2023-02-11T13:17:27;7.29;41.21
68867;SHT30;56451;44.804;20.476;2023-02-11T13:20:04;7.34;40.79
68867;SHT30;56451;44.804;20.476;2023-02-11T13:22:40;7.33;40.76
68867;SHT30;56451;44.804;20.476;2023-02-11T13:30:58;7.44;40.82
68867;SHT30;56451;44.804;20.476;2023-02-11T13:33:36;7.47;40.95
68867;SHT30;56451;44.804;20.476;2023-02-11T13:38:30;7.59;40.48
68867;SHT30;56451;44.804;20.476;2023-02-11T13:41:01;7.59;40.46
68867;SHT30;56451;44.804;20.476;2023-02-11T13:43:32;7.59;40.32
68867;SHT30;56451;44.804;20.476;2023-02-11T13:46:06;7.66;40.16
68867;SHT30;56451;44.804;20.476;2023-02-11T13:48:52;7.64;40.41
68867;SHT30;56451;44.804;20.476;2023-02-11T13:51:37;7.50;40.59
68867;SHT30;56451;44.804;20.476;2023-02-11T13:54:04;7.40;40.62
68867;SHT30;56451;44.804;20.476;2023-02-11T13:56:35;7.26;41.11
68867;SHT30;56451;44.804;20.476;2023-02-11T13:59:04;7.20;41.35
68867;SHT30;56451;44.804;20.476;2023-02-11T14:01:43;7.30;41.22
68867;SHT30;56451;44.804;20.476;2023-02-11T14:08:10;7.56;40.08
68867;SHT30;56451;44.804;20.476;2023-02-11T14:16:17;7.63;40.36
68867;SHT30;56451;44.804;20.476;2023-02-11T14:21:28;7.77;39.94
68867;SHT30;56451;44.804;20.476;2023-02-11T14:26:44;7.77;39.30
68867;SHT30;56451;44.804;20.476;2023-02-11T14:37:13;8.01;39.23
68867;SHT30;56451;44.804;20.476;2023-02-11T14:42:28;8.09;38.55
68867;SHT30;56451;44.804;20.476;2023-02-11T14:44:58;8.11;38.65
68867;SHT30;56451;44.804;20.476;2023-02-11T14:47:40;8.11;38.71
68867;SHT30;56451;44.804;20.476;2023-02-11T14:50:21;8.05;38.84
68867;SHT30;56451;44.804;20.476;2023-02-11T14:52:49;8.04;39.15
68867;SHT30;56451;44.804;20.476;2023-02-11T14:58:29;8.04;39.35
68867;SHT30;56451;44.804;20.476;2023-02-11T15:01:01;8.04;39.31
68867;SHT30;56451;44.804;20.476;2023-02-11T15:03:40;8.04;39.48
68867;SHT30;56451;44.804;20.476;2023-02-11T15:06:16;7.91;39.61
68867;SHT30;56451;44.804;20.476;2023-02-11T15:09:04;7.88;39.89
68867;SHT30;56451;44.804;20.476;2023-02-11T15:11:33;7.92;39.74
68867;SHT30;56451;44.804;20.476;2023-02-11T15:16:55;7.92;39.45
68867;SHT30;56451;44.804;20.476;2023-02-11T15:21:53;7.85;39.31
68867;SHT30;56451;44.804;20.476;2023-02-11T15:26:58;7.88;39.35
68867;SHT30;56451;44.804;20.476;2023-02-11T15:29:35;7.81;39.36
68867;SHT30;56451;44.804;20.476;2023-02-11T15:34:35;7.87;39.30
68867;SHT30;56451;44.804;20.476;2023-02-11T15:37:02;7.84;39.29
68867;SHT30;56451;44.804;20.476;2023-02-11T15:42:15;7.80;39.37
68867;SHT30;56451;44.804;20.476;2023-02-11T15:44:41;7.73;39.51
68867;SHT30;56451;44.804;20.476;2023-02-11T15:47:20;7.67;39.83
68867;SHT30;56451;44.804;20.476;2023-02-11T15:49:47;7.63;39.85
68867;SHT30;56451;44.804;20.476;2023-02-11T15:52:22;7.66;39.70
68867;SHT30;56451;44.804;20.476;2023-02-11T15:54:48;7.62;40.07
68867;SHT30;56451;44.804;20.476;2023-02-11T15:57:14;7.57;40.25
68867;SHT30;56451;44.804;20.476;2023-02-11T15:59:47;7.57;40.30
68867;SHT30;56451;44.804;20.476;2023-02-11T16:05:05;7.53;40.36
68867;SHT30;56451;44.804;20.476;2023-02-11T16:07:48;7.54;40.35
68867;SHT30;56451;44.804;20.476;2023-02-11T16:15:45;7.44;40.62
68867;SHT30;56451;44.804;20.476;2023-02-11T16:18:46;7.47;40.61
68867;SHT30;56451;44.804;20.476;2023-02-11T16:21:16;7.42;40.76
68867;SHT30;56451;44.804;20.476;2023-02-11T16:23:52;7.43;40.68
68867;SHT30;56451;44.804;20.476;2023-02-11T16:26:37;7.42;40.73
68867;SHT30;56451;44.804;20.476;2023-02-11T16:29:16;7.40;40.86
68867;SHT30;56451;44.804;20.476;2023-02-11T16:31:46;7.42;40.61
68867;SHT30;56451;44.804;20.476;2023-02-11T16:36:45;7.36;40.67
68867;SHT30;56451;44.804;20.476;2023-02-11T16:39:12;7.36;40.67
68867;SHT30;56451;44.804;20.476;2023-02-11T16:41:38;7.37;40.51
68867;SHT30;56451;44.804;20.476;2023-02-11T16:44:04;7.36;40.72
68867;SHT30;56451;44.804;20.476;2023-02-11T16:46:30;7.30;40.89
68867;SHT30;56451;44.804;20.476;2023-02-11T16:48:58;7.27;41.06
68867;SHT30;56451;44.804;20.476;2023-02-11T16:51:28;7.30;41.05
68867;SHT30;56451;44.804;20.476;2023-02-11T16:53:54;7.27;40.92
68867;SHT30;56451;44.804;20.476;2023-02-11T16:56:20;7.29;40.95
68867;SHT30;56451;44.804;20.476;2023-02-11T16:58:46;7.25;40.97
68867;SHT30;56451;44.804;20.476;2023-02-11T17:01:12;7.25;41.06
68867;SHT30;56451;44.804;20.476;2023-02-11T17:03:38;7.27;41.00
68867;SHT30;56451;44.804;20.476;2023-02-11T17:06:07;7.26;41.06
68867;SHT30;56451;44.804;20.476;2023-02-11T17:08:34;7.27;41.01
68867;SHT30;56451;44.804;20.476;2023-02-11T17:11:01;7.22;41.10
68867;SHT30;56451;44.804;20.476;2023-02-11T17:13:27;7.23;41.20
68867;SHT30;56451;44.804;20.476;2023-02-11T17:15:53;7.23;41.36
68867;SHT30;56451;44.804;20.476;2023-02-11T17:18:19;7.20;41.47
68867;SHT30;56451;44.804;20.476;2023-02-11T17:20:45;7.20;41.45
68867;SHT30;56451;44.804;20.476;2023-02-11T17:23:11;7.19;41.30
68867;SHT30;56451;44.804;20.476;2023-02-11T17:25:37;7.20;41.35
68867;SHT30;56451;44.804;20.476;2023-02-11T17:28:05;7.19;41.48
68867;SHT30;56451;44.804;20.476;2023-02-11T17:30:31;7.13;41.48
68867;SHT30;56451;44.804;20.476;2023-02-11T17:32:57;7.12;41.77
68867;SHT30;56451;44.804;20.476;2023-02-11T17:35:23;7.09;41.70
68867;SHT30;56451;44.804;20.476;2023-02-11T17:37:49;7.09;41.76
68867;SHT30;56451;44.804;20.476;2023-02-11T17:40:15;7.11;41.57
68867;SHT30;56451;44.804;20.476;2023-02-11T17:42:41;7.08;41.57
68867;SHT30;56451;44.804;20.476;2023-02-11T17:45:07;7.06;41.65
68867;SHT30;56451;44.804;20.476;2023-02-11T17:47:34;7.05;41.79
68867;SHT30;56451;44.804;20.476;2023-02-11T17:50:00;7.04;41.86
68867;SHT30;56451;44.804;20.476;2023-02-11T17:52:27;7.02;42.02
68867;SHT30;56451;44.804;20.476;2023-02-11T17:54:54;7.02;41.94
68867;SHT30;56451;44.804;20.476;2023-02-11T17:57:20;7.02;41.94
68867;SHT30;56451;44.804;20.476;2023-02-11T17:59:46;7.01;41.99
68867;SHT30;56451;44.804;20.476;2023-02-11T18:02:12;6.96;42.11
68867;SHT30;56451;44.804;20.476;2023-02-11T18:04:38;6.95;42.12
68867;SHT30;56451;44.804;20.476;2023-02-11T18:07:05;6.89;42.26
68867;SHT30;56451;44.804;20.476;2023-02-11T18:09:39;6.89;42.33
68867;SHT30;56451;44.804;20.476;2023-02-11T18:12:06;6.91;42.32
68867;SHT30;56451;44.804;20.476;2023-02-11T18:14:32;6.89;42.24
68867;SHT30;56451;44.804;20.476;2023-02-11T18:16:59;6.88;42.34
68867;SHT30;56451;44.804;20.476;2023-02-11T18:19:25;6.87;42.37
68867;SHT30;56451;44.804;20.476;2023-02-11T18:21:51;6.85;42.43
68867;SHT30;56451;44.804;20.476;2023-02-11T18:24:17;6.89;42.39
68867;SHT30;56451;44.804;20.476;2023-02-11T18:26:43;6.87;42.37
68867;SHT30;56451;44.804;20.476;2023-02-11T18:29:09;6.85;42.55
68867;SHT30;56451;44.804;20.476;2023-02-11T18:31:35;6.81;42.56
68867;SHT30;56451;44.804;20.476;2023-02-11T18:34:03;6.87;42.65
68867;SHT30;56451;44.804;20.476;2023-02-11T18:36:30;6.85;42.62
68867;SHT30;56451;44.804;20.476;2023-02-11T18:38:56;6.85;42.63
68867;SHT30;56451;44.804;20.476;2023-02-11T18:41:23;6.88;42.52
68867;SHT30;56451;44.804;20.476;2023-02-11T18:43:49;6.89;42.63
68867;SHT30;56451;44.804;20.476;2023-02-11T18:46:15;6.89;42.61
68867;SHT30;56451;44.804;20.476;2023-02-11T18:48:41;6.88;42.71